createdAt,value
2022-10-11T00:00:53.979Z,13.02
2022-10-11T00:03:25.862Z,12.90
2022-10-11T00:05:57.944Z,11.15
2022-10-11T00:08:30.198Z,14.93
2022-10-11T00:11:06.168Z,16.50
2022-10-11T00:13:38.192Z,14.50
2022-10-11T00:16:11.475Z,17.08
2022-10-11T00:18:43.307Z,19.80
2022-10-11T00:21:16.426Z,17.67
2022-10-11T00:23:49.057Z,17.65
2022-10-11T00:26:22.199Z,18.20
2022-10-11T00:28:54.159Z,17.55
2022-10-11T00:31:26.107Z,18.73
2022-10-11T00:33:57.889Z,16.00
2022-10-11T00:36:29.718Z,15.68
2022-10-11T00:39:01.554Z,16.70
2022-10-11T00:41:34.780Z,15.90
2022-10-11T00:44:11.732Z,14.60
2022-10-11T00:46:45.972Z,16.45
2022-10-11T00:49:22.543Z,16.60
2022-10-11T00:51:58.452Z,21.02
2022-10-11T00:54:33.876Z,19.45
2022-10-11T00:57:11.443Z,16.27
2022-10-11T00:59:48.903Z,17.02
2022-10-11T01:02:21.799Z,17.95
2022-10-11T01:05:11.290Z,20.77
2022-10-11T01:07:47.351Z,16.02
2022-10-11T01:13:05.217Z,18.77
2022-10-11T01:15:42.434Z,17.77
2022-10-11T01:18:20.475Z,22.45
2022-10-11T01:21:01.710Z,22.63
2022-10-11T01:24:08.515Z,12.75
2022-10-11T01:27:40.057Z,21.10
2022-10-11T01:30:19.741Z,19.50
2022-10-11T01:32:59.984Z,24.10
2022-10-11T01:35:38.176Z,22.55
2022-10-11T01:38:17.223Z,20.67
2022-10-11T01:40:52.950Z,18.52
2022-10-11T01:43:26.185Z,22.10
2022-10-11T01:46:02.097Z,22.15
2022-10-11T01:48:34.243Z,21.38
2022-10-11T01:51:06.021Z,25.00
2022-10-11T01:54:02.745Z,31.23
2022-10-11T01:56:46.574Z,25.92
2022-10-11T01:59:31.986Z,31.48
2022-10-11T02:02:17.955Z,28.92
2022-10-11T02:04:55.902Z,39.55
2022-10-11T02:07:34.172Z,29.27
2022-10-11T02:10:11.680Z,27.17
2022-10-11T02:12:49.232Z,27.80
2022-10-11T02:15:22.868Z,29.38
2022-10-11T02:17:59.620Z,36.00
2022-10-11T02:20:34.127Z,35.15
2022-10-11T02:23:10.533Z,34.92
2022-10-11T02:25:44.338Z,31.50
2022-10-11T02:28:22.065Z,29.92
2022-10-11T02:30:56.623Z,34.80
2022-10-11T02:33:36.419Z,26.50
2022-10-11T02:36:13.124Z,24.63
2022-10-11T02:38:48.849Z,30.95
2022-10-11T02:41:27.228Z,29.60
2022-10-11T02:44:04.899Z,35.20
2022-10-11T02:46:38.355Z,24.15
2022-10-11T02:49:13.068Z,28.42
2022-10-11T02:51:44.870Z,26.95
2022-10-11T02:54:17.080Z,24.83
2022-10-11T02:56:48.871Z,26.88
2022-10-11T02:59:20.749Z,25.17
2022-10-11T03:01:52.720Z,21.50
2022-10-11T03:04:25.903Z,19.55
2022-10-11T03:06:57.779Z,23.65
2022-10-11T03:09:29.551Z,29.52
2022-10-11T03:12:01.428Z,23.73
2022-10-11T03:14:33.241Z,20.55
2022-10-11T03:17:30.922Z,20.17
2022-10-11T03:19:58.479Z,26.30
2022-10-11T03:22:30.261Z,25.85
2022-10-11T03:25:04.282Z,24.35
2022-10-11T03:27:36.600Z,21.75
2022-10-11T03:30:10.066Z,25.85
2022-10-11T03:32:41.891Z,22.50
2022-10-11T03:35:15.334Z,23.95
2022-10-11T03:40:18.955Z,20.17
2022-10-11T03:42:50.816Z,21.60
2022-10-11T03:45:22.658Z,21.33
2022-10-11T03:47:54.501Z,17.23
2022-10-11T03:50:27.754Z,21.17
2022-10-11T03:52:59.659Z,23.75
2022-10-11T03:55:31.577Z,14.07
2022-10-11T03:58:03.384Z,14.52
2022-10-11T04:00:35.522Z,19.00
2022-10-11T04:03:07.441Z,18.83
2022-10-11T04:05:40.912Z,16.08
2022-10-11T04:08:12.702Z,14.48
2022-10-11T04:10:44.601Z,15.60
2022-10-11T04:13:16.719Z,21.02
2022-10-11T04:15:48.507Z,19.65
2022-10-11T04:18:20.340Z,20.10
2022-10-11T04:20:53.445Z,18.17
2022-10-11T04:23:25.274Z,22.63
2022-10-11T04:25:57.062Z,26.17
2022-10-11T04:28:28.831Z,23.95
2022-10-11T04:31:00.973Z,22.67
2022-10-11T04:33:32.838Z,21.90
2022-10-11T04:36:07.218Z,26.17
2022-10-11T04:38:39.351Z,16.67
2022-10-11T04:41:14.186Z,17.48
2022-10-11T04:43:45.979Z,20.30
2022-10-11T04:46:17.784Z,21.85
2022-10-11T04:48:49.792Z,23.73
2022-10-11T04:51:23.326Z,20.30
2022-10-11T04:53:55.184Z,19.38
2022-10-11T04:56:26.999Z,25.65
2022-10-11T04:58:58.751Z,20.13
2022-10-11T05:01:30.526Z,20.63
2022-10-11T05:04:02.317Z,18.55
2022-10-11T05:06:35.530Z,16.38
2022-10-11T05:09:07.741Z,16.83
2022-10-11T05:11:39.561Z,22.35
2022-10-11T05:14:11.455Z,20.67
2022-10-11T05:16:43.296Z,15.50
2022-10-11T05:19:15.087Z,18.23
2022-10-11T05:21:48.210Z,19.58
2022-10-11T05:24:19.994Z,15.18
2022-10-11T05:26:51.885Z,17.73
2022-10-11T05:29:23.685Z,20.17
2022-10-11T05:31:55.502Z,21.23
2022-10-11T05:34:27.446Z,15.73
2022-10-11T05:37:00.665Z,17.88
2022-10-11T05:39:32.476Z,16.20
2022-10-11T05:42:08.922Z,17.55
2022-10-11T05:44:41.639Z,18.77
2022-10-11T05:47:13.692Z,20.20
2022-10-11T05:49:45.509Z,22.30
2022-10-11T05:52:21.499Z,17.45
2022-10-11T05:54:53.255Z,14.20
2022-10-11T05:57:25.005Z,18.50
2022-10-11T05:59:56.881Z,20.83
2022-10-11T06:02:28.712Z,21.17
2022-10-11T06:05:00.641Z,20.90
2022-10-11T06:07:35.826Z,19.15
2022-10-11T06:10:08.903Z,22.50
2022-10-11T06:12:40.741Z,23.85
2022-10-11T06:15:12.576Z,25.27
2022-10-11T06:17:44.506Z,20.15
2022-10-11T06:20:16.607Z,19.83
2022-10-11T06:22:49.790Z,27.73
2022-10-11T06:25:21.810Z,27.30
2022-10-11T06:27:54.150Z,17.55
2022-10-11T06:30:25.911Z,16.60
2022-10-11T06:33:02.375Z,21.80
2022-10-11T06:35:36.398Z,24.95
2022-10-11T06:38:09.519Z,17.73
2022-10-11T06:40:41.810Z,20.95
2022-10-11T06:43:13.584Z,17.77
2022-10-11T06:45:45.425Z,20.15
2022-10-11T06:48:17.234Z,17.35
2022-10-11T06:50:59.657Z,22.40
2022-10-11T06:53:33.582Z,25.17
2022-10-11T06:56:08.009Z,20.60
2022-10-11T06:58:40.649Z,17.35
2022-10-11T07:01:14.288Z,15.85
2022-10-11T07:03:46.370Z,22.63
2022-10-11T07:06:20.117Z,21.92
2022-10-11T07:08:53.685Z,21.70
2022-10-11T07:11:27.264Z,18.52
2022-10-11T07:14:01.216Z,22.52
2022-10-11T07:16:33.073Z,27.10
2022-10-11T07:19:06.621Z,21.60
2022-10-11T07:21:38.465Z,24.73
2022-10-11T07:24:11.645Z,18.90
2022-10-11T07:26:43.455Z,18.83
2022-10-11T07:29:15.291Z,18.88
2022-10-11T07:31:47.140Z,20.00
2022-10-11T07:34:20.601Z,21.25
2022-10-11T07:36:52.532Z,23.77
2022-10-11T07:39:25.639Z,20.40
2022-10-11T07:41:57.457Z,22.40
2022-10-11T07:44:29.540Z,24.80
2022-10-11T07:47:01.538Z,23.50
2022-10-11T07:49:33.333Z,18.17
2022-10-11T07:52:05.386Z,20.27
2022-10-11T07:54:40.052Z,22.15
2022-10-11T07:57:11.818Z,26.40
2022-10-11T07:59:47.848Z,20.90
2022-10-11T08:02:21.822Z,18.77
2022-10-11T08:04:53.658Z,22.77
2022-10-11T08:07:25.492Z,21.55
2022-10-11T08:09:58.717Z,17.55
2022-10-11T08:12:30.482Z,20.02
2022-10-11T08:15:02.332Z,20.38
2022-10-11T08:17:34.168Z,16.67
2022-10-11T08:20:06.586Z,16.25
2022-10-11T08:22:39.230Z,19.17
2022-10-11T08:25:12.383Z,18.10
2022-10-11T08:27:44.173Z,14.65
2022-10-11T08:30:16.029Z,15.23
2022-10-11T08:32:47.853Z,15.93
2022-10-11T08:35:19.681Z,17.90
2022-10-11T08:37:51.620Z,18.98
2022-10-11T08:40:25.031Z,19.65
2022-10-11T08:45:38.608Z,20.45
2022-10-11T08:48:16.089Z,22.10
2022-10-11T08:50:51.977Z,14.90
2022-10-11T08:53:28.679Z,20.58
2022-10-11T08:56:04.096Z,22.00
2022-10-11T08:58:40.223Z,17.15
2022-10-11T09:01:17.703Z,23.15
2022-10-11T09:03:50.651Z,20.10
2022-10-11T09:06:35.120Z,18.92
2022-10-11T09:09:27.574Z,19.00
2022-10-11T09:12:16.159Z,20.30
2022-10-11T09:15:12.352Z,20.13
2022-10-11T09:17:58.681Z,21.60
2022-10-11T09:20:41.669Z,17.30
2022-10-11T09:23:25.081Z,20.52
2022-10-11T09:26:02.491Z,17.73
2022-10-11T09:28:50.059Z,17.58
2022-10-11T09:31:22.963Z,23.33
2022-10-11T09:33:55.665Z,17.58
2022-10-11T09:42:46.729Z,14.73
2022-10-11T10:05:46.342Z,14.85
2022-10-11T10:08:24.321Z,17.13
2022-10-11T10:11:02.083Z,15.48
2022-10-11T10:13:43.677Z,14.93
2022-10-11T10:16:24.750Z,13.10
2022-10-11T10:18:58.973Z,12.80
2022-10-11T10:21:34.709Z,12.65
2022-10-11T10:24:17.006Z,17.70
2022-10-11T10:27:05.887Z,12.52
2022-10-11T10:29:38.049Z,15.50
2022-10-11T10:32:14.934Z,11.98
2022-10-11T10:35:02.003Z,13.00
2022-10-11T10:37:41.187Z,14.32
2022-10-11T10:40:18.409Z,12.50
2022-10-11T10:42:50.736Z,9.88
2022-10-11T10:45:27.385Z,11.73
2022-10-11T10:48:12.355Z,11.45
2022-10-11T10:50:52.500Z,9.15
2022-10-11T10:53:32.283Z,12.73
2022-10-11T10:56:10.291Z,10.30
2022-10-11T10:59:05.656Z,11.80
2022-10-11T11:01:50.256Z,8.95
2022-10-11T11:04:30.277Z,11.23
2022-10-11T11:07:12.960Z,10.68
2022-10-11T11:09:55.065Z,13.33
2022-10-11T11:12:40.979Z,10.73
2022-10-11T11:15:19.868Z,13.50
2022-10-11T11:18:05.595Z,10.27
2022-10-11T11:20:52.979Z,9.75
2022-10-11T11:23:31.961Z,12.52
2022-10-11T11:26:10.852Z,9.57
2022-10-11T11:28:55.259Z,10.05
2022-10-11T11:31:54.650Z,10.27
2022-10-11T11:34:29.336Z,12.60
2022-10-11T11:37:05.214Z,11.63
2022-10-11T11:39:43.308Z,9.57
2022-10-11T11:42:21.929Z,12.43
2022-10-11T11:44:53.975Z,8.98
2022-10-11T11:47:32.270Z,10.55
2022-10-11T11:50:19.091Z,12.30
2022-10-11T11:52:53.912Z,10.73
2022-10-11T11:55:32.318Z,10.23
2022-10-11T11:58:13.518Z,11.00
2022-10-11T12:00:54.887Z,12.45
2022-10-11T12:03:31.869Z,14.75
2022-10-11T12:06:27.831Z,11.52
2022-10-11T12:09:04.123Z,7.95
2022-10-11T12:11:48.671Z,9.85
2022-10-11T12:14:36.020Z,9.98
2022-10-11T12:17:16.032Z,12.93
2022-10-11T12:20:14.520Z,8.75
2022-10-11T12:22:55.430Z,13.38
2022-10-11T12:25:35.345Z,11.02
2022-10-11T12:28:48.796Z,12.27
2022-10-11T12:31:24.725Z,11.97
2022-10-11T12:34:20.037Z,11.35
2022-10-11T12:36:52.221Z,10.38
2022-10-11T12:39:51.699Z,12.05
2022-10-11T12:42:29.706Z,10.55
2022-10-11T12:45:30.203Z,7.88
2022-10-11T12:48:31.968Z,12.07
2022-10-11T12:51:25.581Z,10.63
2022-10-11T12:54:29.081Z,9.95
2022-10-11T12:57:28.945Z,12.20
2022-10-11T13:00:17.934Z,10.82
2022-10-11T13:02:50.165Z,12.45
2022-10-11T13:05:29.704Z,11.88
2022-10-11T13:08:05.448Z,16.95
2022-10-11T13:10:43.500Z,9.10
2022-10-11T13:13:22.039Z,10.00
2022-10-11T13:15:56.369Z,14.85
2022-10-11T13:18:28.136Z,9.95
2022-10-11T13:21:01.358Z,8.98
2022-10-11T13:23:37.915Z,12.98
2022-10-11T13:26:09.842Z,12.00
2022-10-11T13:28:42.486Z,8.90
2022-10-11T13:31:14.376Z,14.35
2022-10-11T13:33:46.628Z,14.65
2022-10-11T13:36:22.671Z,11.57
2022-10-11T13:38:57.639Z,11.13
2022-10-11T13:41:30.827Z,9.98
2022-10-11T13:44:03.485Z,13.35
2022-10-11T13:46:37.699Z,13.45
2022-10-11T13:49:26.377Z,9.30
2022-10-11T13:52:02.693Z,7.90
2022-10-11T13:55:11.463Z,11.68
2022-10-11T13:57:46.174Z,10.25
2022-10-11T14:00:25.072Z,12.48
2022-10-11T14:03:00.000Z,10.85
2022-10-11T14:05:35.408Z,10.43
2022-10-11T14:08:22.347Z,13.77
2022-10-11T14:10:57.777Z,14.10
2022-10-11T14:13:34.488Z,13.68
2022-10-11T14:16:09.442Z,17.17
2022-10-11T14:18:44.475Z,12.30
2022-10-11T14:21:31.340Z,11.73
2022-10-11T14:24:10.410Z,9.35
2022-10-11T14:26:44.394Z,10.55
2022-10-11T14:29:23.330Z,11.90
2022-10-11T14:32:01.300Z,16.15
2022-10-11T14:34:34.546Z,13.48
2022-10-11T14:37:06.370Z,16.77
2022-10-11T14:39:39.501Z,13.77
2022-10-11T14:42:12.076Z,15.02
2022-10-11T14:44:44.081Z,17.35
2022-10-11T14:47:16.926Z,13.15
2022-10-11T14:49:48.769Z,11.25
2022-10-11T14:52:20.591Z,12.45
2022-10-11T14:54:53.816Z,11.63
2022-10-11T14:57:26.291Z,21.95
2022-10-11T14:59:58.091Z,16.00
2022-10-11T15:02:29.898Z,12.57
2022-10-11T15:05:01.743Z,13.07
2022-10-11T15:07:35.465Z,11.20
2022-10-11T15:10:18.738Z,10.15
2022-10-11T15:12:51.294Z,9.63
2022-10-11T15:15:26.496Z,10.82
2022-10-11T15:17:59.751Z,9.27
2022-10-11T15:20:35.082Z,11.13
2022-10-11T15:23:09.665Z,11.95
2022-10-11T15:25:42.956Z,13.00
2022-10-11T15:30:50.520Z,9.07
2022-10-11T15:33:23.498Z,12.30
2022-10-11T15:35:55.365Z,15.65
2022-10-11T15:38:27.825Z,9.52
2022-10-11T15:41:01.130Z,12.23
2022-10-11T15:46:05.631Z,10.60
2022-10-11T15:48:38.167Z,10.05
2022-10-11T15:51:10.291Z,10.30
2022-10-11T15:53:42.141Z,13.30
2022-10-11T15:56:18.864Z,15.30
2022-10-11T15:58:50.625Z,15.45
2022-10-11T16:01:22.508Z,17.27
2022-10-11T16:03:54.399Z,14.20
2022-10-11T16:06:27.586Z,10.57
2022-10-11T16:08:59.368Z,13.30
2022-10-11T16:11:32.610Z,11.15
2022-10-11T16:14:04.325Z,12.48
2022-10-11T16:16:36.083Z,14.18
2022-10-11T16:19:08.201Z,12.80
2022-10-11T16:21:39.980Z,12.80
2022-10-11T16:24:11.745Z,15.88
2022-10-11T16:26:44.928Z,13.93
2022-10-11T16:29:16.767Z,14.68
2022-10-11T16:31:48.720Z,14.13
2022-10-11T16:34:20.543Z,13.95
2022-10-11T16:36:52.501Z,16.45
2022-10-11T16:39:24.408Z,16.65
2022-10-11T16:41:57.640Z,15.32
2022-10-11T16:44:29.504Z,17.65
2022-10-11T16:47:01.319Z,17.08
2022-10-11T16:49:33.352Z,14.05
2022-10-11T16:52:05.488Z,16.65
2022-10-11T16:54:37.625Z,11.60
2022-10-11T16:57:11.960Z,14.20
2022-10-11T16:59:43.970Z,13.18
2022-10-11T17:02:17.891Z,12.77
2022-10-11T17:04:51.509Z,12.90
2022-10-11T17:07:23.699Z,13.45
2022-10-11T17:09:55.679Z,11.77
2022-10-11T17:12:28.819Z,10.82
2022-10-11T17:15:00.640Z,12.50
2022-10-11T17:17:32.520Z,14.82
2022-10-11T17:20:05.235Z,12.82
2022-10-11T17:22:37.046Z,14.88
2022-10-11T17:25:09.091Z,13.43
2022-10-11T17:27:42.284Z,17.80
2022-10-11T17:30:14.132Z,16.58
2022-10-11T17:32:46.056Z,18.42
2022-10-11T17:35:18.064Z,13.18
2022-10-11T17:37:49.960Z,18.13
2022-10-11T17:40:21.773Z,20.63
2022-10-11T17:42:54.882Z,20.48
2022-10-11T17:45:26.641Z,20.88
2022-10-11T17:48:00.524Z,18.27
2022-10-11T17:50:33.054Z,18.60
2022-10-11T17:53:04.836Z,17.67
2022-10-11T17:55:42.176Z,16.08
2022-10-11T17:58:15.304Z,19.95
2022-10-11T18:00:47.128Z,16.02
2022-10-11T18:03:18.957Z,18.55
2022-10-11T18:05:50.796Z,15.55
2022-10-11T18:08:22.557Z,19.00
2022-10-11T18:10:54.330Z,20.65
2022-10-11T18:13:27.604Z,24.77
2022-10-11T18:15:59.480Z,36.03
2022-10-11T18:18:31.237Z,36.83
2022-10-11T18:21:03.253Z,40.58
2022-10-11T18:23:37.361Z,40.42
2022-10-11T18:26:11.502Z,28.50
2022-10-11T18:28:45.615Z,31.45
2022-10-11T18:31:21.313Z,27.92
2022-10-11T18:33:54.298Z,24.38
2022-10-11T18:36:28.527Z,20.17
2022-10-11T18:39:02.528Z,17.92
2022-10-11T18:41:35.336Z,16.33
2022-10-11T18:44:13.698Z,17.50
2022-10-11T18:46:46.211Z,15.98
2022-10-11T18:49:18.046Z,18.80
2022-10-11T18:51:49.876Z,24.27
2022-10-11T18:54:21.870Z,20.02
2022-10-11T18:56:53.626Z,21.75
2022-10-11T18:59:26.915Z,20.05
2022-10-11T19:01:58.854Z,22.33
2022-10-11T19:04:34.114Z,22.58
2022-10-11T19:07:05.939Z,22.85
2022-10-11T19:09:38.057Z,24.80
2022-10-11T19:12:09.859Z,25.40
2022-10-11T19:14:43.203Z,25.42
2022-10-11T19:19:48.793Z,18.67
2022-10-11T19:22:20.624Z,14.63
2022-10-11T19:24:52.471Z,19.38
2022-10-11T19:27:24.200Z,17.02
2022-10-11T19:29:57.383Z,13.35
2022-10-11T19:32:29.179Z,14.25
2022-10-11T19:35:01.019Z,14.30
2022-10-11T19:37:33.150Z,11.57
2022-10-11T19:40:06.607Z,17.42
2022-10-11T19:42:38.375Z,16.48
2022-10-11T19:45:11.751Z,13.52
2022-10-11T19:50:15.321Z,18.10
2022-10-11T19:52:47.180Z,15.00
2022-10-11T19:55:18.968Z,13.82
2022-10-11T19:57:50.726Z,10.95
2022-10-11T20:00:24.068Z,17.35
2022-10-11T20:05:27.565Z,13.27
2022-10-11T20:07:59.331Z,11.50
2022-10-11T20:10:31.169Z,14.35
2022-10-11T20:13:03.153Z,14.60
2022-10-11T20:15:38.465Z,11.85
2022-10-11T20:18:10.551Z,13.27
2022-10-11T20:20:51.741Z,14.02
2022-10-11T20:23:27.602Z,11.38
2022-10-11T20:26:00.775Z,11.98
2022-10-11T20:28:34.057Z,12.90
2022-10-11T20:33:43.641Z,10.40
2022-10-11T20:36:17.028Z,15.32
2022-10-11T20:41:22.714Z,14.30
2022-10-11T20:46:31.416Z,10.93
2022-10-11T20:49:04.807Z,9.90
2022-10-11T20:54:10.796Z,12.32
2022-10-11T20:59:14.388Z,11.80
2022-10-11T21:01:47.646Z,11.52
2022-10-11T21:04:20.775Z,9.70
2022-10-11T21:06:52.592Z,10.57
2022-10-11T21:09:24.553Z,10.80
2022-10-11T21:11:56.338Z,14.95
2022-10-11T21:14:28.103Z,11.55
2022-10-11T21:17:01.196Z,12.77
2022-10-11T21:19:33.286Z,14.68
2022-10-11T21:22:06.176Z,11.93
2022-10-11T21:24:38.959Z,15.52
2022-10-11T21:27:11.094Z,13.27
2022-10-11T21:29:42.900Z,17.08
2022-10-11T21:32:16.250Z,13.50
2022-10-11T21:37:19.762Z,16.75
2022-10-11T21:39:51.881Z,10.15
2022-10-11T21:42:28.618Z,14.65
2022-10-11T21:45:01.379Z,9.75
2022-10-11T21:47:38.867Z,10.50
2022-10-11T21:50:11.048Z,10.23
2022-10-11T21:52:42.907Z,9.98
2022-10-11T21:55:15.079Z,14.13
2022-10-11T21:57:46.903Z,10.38
2022-10-11T22:00:18.842Z,9.57
2022-10-11T22:02:53.218Z,12.85
2022-10-11T22:05:25.096Z,8.82
2022-10-11T22:07:56.954Z,7.97
2022-10-11T22:10:28.918Z,8.25
2022-10-11T22:13:01.205Z,11.57
2022-10-11T22:15:34.558Z,11.65
2022-10-11T22:18:07.725Z,8.38
2022-10-11T22:20:39.557Z,8.13
2022-10-11T22:23:11.593Z,9.18
2022-10-11T22:25:43.393Z,10.82
2022-10-11T22:28:15.429Z,9.40
2022-10-11T22:30:48.265Z,9.98
2022-10-11T22:33:21.363Z,14.32
2022-10-11T22:35:56.565Z,10.20
2022-10-11T22:38:28.671Z,8.60
2022-10-11T22:41:00.718Z,15.60
2022-10-11T22:43:33.146Z,12.57
2022-10-11T22:46:05.726Z,9.90
2022-10-11T22:48:38.924Z,11.10
2022-10-11T22:51:10.682Z,17.45
2022-10-11T22:53:42.552Z,13.45
2022-10-11T22:56:14.477Z,16.48
2022-10-11T22:58:46.569Z,12.07
2022-10-11T23:01:18.362Z,11.60
2022-10-11T23:03:51.976Z,9.80
2022-10-11T23:06:24.086Z,9.95
2022-10-11T23:08:56.078Z,10.25
2022-10-11T23:11:28.283Z,14.57
2022-10-11T23:14:00.197Z,10.82
2022-10-11T23:16:32.036Z,10.30
2022-10-11T23:19:05.179Z,11.18
2022-10-11T23:21:36.939Z,9.35
2022-10-11T23:24:09.970Z,9.27
2022-10-11T23:26:41.772Z,10.82
2022-10-11T23:29:13.570Z,8.73
2022-10-11T23:31:46.948Z,8.07
2022-10-11T23:36:51.675Z,8.70
2022-10-11T23:39:23.481Z,8.55
2022-10-11T23:41:55.366Z,9.70
2022-10-11T23:44:27.159Z,12.02
2022-10-11T23:46:58.983Z,8.98
2022-10-11T23:49:32.111Z,9.20
2022-10-11T23:52:03.954Z,12.65
2022-10-11T23:54:35.766Z,9.70
2022-10-11T23:57:07.533Z,9.55
2022-10-11T23:59:39.338Z,12.68
